Time;durP1;ratioP1;P1;durP2;ratioP2;P2;SDS_P1;SDS_P2;PMS_P1;PMS_P2;Temp;Humidity;BMP_temperature;BMP_pressure;BME280_temperature;BME280_humidity;BME280_pressure;Samples;Min_cycle;Max_cycle;Signal;HPM_P1;HPM_P2
2023/03/19 00:00:17;;;;;;;17.00;9.57;;;;;;;15.90;46.30;101002.97;5084503;27;98920;-73
2023/03/19 00:02:48;;;;;;;17.00;9.00;;;;;;;16.10;45.60;101008.09;5091194;27;98891;-73
2023/03/19 00:05:15;;;;;;;14.77;8.60;;;;;;;15.82;46.06;101008.69;5092527;27;96794;-74
2023/03/19 00:07:41;;;;;;;16.20;8.68;;;;;;;15.56;46.56;101005.72;5094114;27;96792;-74
2023/03/19 00:10:08;;;;;;;14.23;8.35;;;;;;;16.04;45.56;101005.75;5086254;27;100075;-74
2023/03/19 00:12:36;;;;;;;16.13;8.68;;;;;;;15.86;45.56;101002.28;5094992;27;98856;-74
2023/03/19 00:15:03;;;;;;;14.70;8.80;;;;;;;15.86;45.69;101004.09;5092308;27;96743;-73
2023/03/19 00:17:29;;;;;;;15.13;8.95;;;;;;;16.09;44.82;100993.03;5090280;27;97070;-73
2023/03/19 00:19:56;;;;;;;19.05;9.48;;;;;;;15.96;44.50;100997.31;5091675;27;98973;-73
2023/03/19 00:22:22;;;;;;;14.82;9.25;;;;;;;15.88;44.63;100999.53;5088544;27;98865;-73
2023/03/19 00:24:48;;;;;;;16.67;9.68;;;;;;;15.95;44.41;101001.78;5089987;27;96869;-72
2023/03/19 00:27:15;;;;;;;15.77;9.50;;;;;;;15.86;44.53;100999.63;5096884;27;97972;-73
2023/03/19 00:29:43;;;;;;;14.90;9.23;;;;;;;15.69;44.94;100988.09;5088905;27;99010;-72
2023/03/19 00:32:09;;;;;;;17.38;8.32;;;;;;;15.70;44.67;100998.69;5107456;27;99086;-71
2023/03/19 00:34:36;;;;;;;21.60;9.95;;;;;;;15.76;44.59;101001.03;5082761;27;97687;-72
2023/03/19 00:37:02;;;;;;;19.58;8.82;;;;;;;15.60;44.97;100993.94;5102484;27;97391;-73
2023/03/19 00:39:29;;;;;;;16.83;8.70;;;;;;;15.79;44.50;100997.34;5080864;27;99306;-73
2023/03/19 00:41:55;;;;;;;18.35;9.07;;;;;;;15.64;44.96;100998.16;5094850;27;98922;-72
2023/03/19 00:44:21;;;;;;;16.33;8.73;;;;;;;15.51;44.80;101000.56;5083915;27;97306;-72
2023/03/19 00:46:49;;;;;;;19.02;9.38;;;;;;;15.45;45.06;100995.56;5090364;27;97039;-72
2023/03/19 00:49:15;;;;;;;21.17;9.88;;;;;;;15.62;44.73;100989.41;5091008;27;98923;-71
2023/03/19 00:51:42;;;;;;;20.75;8.95;;;;;;;15.51;44.43;100996.09;5089882;27;98856;-71
2023/03/19 00:54:10;;;;;;;20.65;10.18;;;;;;;15.33;45.05;100999.72;5089156;27;97235;-73
2023/03/19 00:56:37;;;;;;;18.73;9.30;;;;;;;15.40;45.11;101002.94;5101256;27;96959;-73
2023/03/19 00:59:03;;;;;;;16.42;9.55;;;;;;;15.35;45.06;100997.84;5085256;27;99052;-72
2023/03/19 01:01:30;;;;;;;19.42;9.55;;;;;;;15.36;44.78;101007.53;5099593;27;99483;-72
2023/03/19 01:03:58;;;;;;;20.27;9.88;;;;;;;15.37;45.07;101009.25;5081792;27;96759;-73
2023/03/19 01:06:25;;;;;;;17.58;9.40;;;;;;;15.07;45.77;101005.50;5098236;27;97103;-73
2023/03/19 01:08:51;;;;;;;17.50;9.65;;;;;;;15.18;45.37;101002.28;5079291;27;99054;-72
2023/03/19 01:11:18;;;;;;;19.75;10.20;;;;;;;15.33;44.82;101005.03;5098142;27;98997;-73
2023/03/19 01:13:45;;;;;;;15.98;9.68;;;;;;;14.97;45.34;101006.88;5087897;27;97155;-71
2023/03/19 01:16:12;;;;;;;21.17;9.55;;;;;;;15.11;45.24;101007.06;5090846;27;97088;-73
2023/03/19 01:18:38;;;;;;;27.15;10.60;;;;;;;15.29;44.50;100997.28;5075631;27;99105;-72
2023/03/19 01:21:07;;;;;;;18.92;9.48;;;;;;;15.19;44.36;101010.19;5086729;27;99912;-72
2023/03/19 01:23:33;;;;;;;17.60;9.63;;;;;;;15.03;44.52;101011.91;5091116;27;96804;-74
2023/03/19 01:26:00;;;;;;;20.33;10.50;;;;;;;15.09;44.71;101024.91;5087808;27;96974;-71
2023/03/19 01:28:26;;;;;;;22.48;10.18;;;;;;;15.20;44.26;101009.25;5082548;27;99270;-74
2023/03/19 01:30:52;;;;;;;19.75;10.27;;;;;;;15.17;44.05;101009.41;5079722;27;99244;-74
2023/03/19 01:33:19;;;;;;;21.90;10.73;;;;;;;14.89;44.10;101017.91;5088632;27;96652;-73
2023/03/19 01:35:48;;;;;;;20.70;10.60;;;;;;;15.07;44.07;101019.66;5090849;27;96815;-74
2023/03/19 01:38:16;;;;;;;25.38;11.30;;;;;;;15.09;44.47;101016.94;5083418;27;100565;-73
2023/03/19 01:40:46;;;;;;;17.23;10.35;;;;;;;14.76;44.76;101019.44;5083734;27;98974;-73
2023/03/19 01:43:17;;;;;;;18.23;10.55;;;;;;;14.79;44.78;101015.75;5092310;27;96751;-73
2023/03/19 01:45:45;;;;;;;16.85;10.25;;;;;;;15.01;43.96;101014.66;5081170;27;96885;-72
2023/03/19 01:48:28;;;;;;;22.00;11.15;;;;;;;15.04;43.89;101016.28;5089309;27;99262;-72
2023/03/19 01:50:56;;;;;;;17.38;9.65;;;;;;;14.79;43.94;101021.06;5081737;27;98159;-72
2023/03/19 01:53:27;;;;;;;18.67;11.38;;;;;;;14.92;44.08;101022.22;5101122;27;96798;-72
2023/03/19 01:55:59;;;;;;;17.38;10.40;;;;;;;14.96;43.70;101022.00;5079308;27;97788;-72
2023/03/19 01:58:26;;;;;;;19.25;11.00;;;;;;;14.53;44.64;101030.31;5093623;27;98891;-72
2023/03/19 02:00:52;;;;;;;19.13;10.95;;;;;;;14.80;44.13;101026.34;5077485;27;101518;-72
2023/03/19 02:03:19;;;;;;;20.85;10.52;;;;;;;14.68;44.57;101025.13;5095481;27;96949;-73
2023/03/19 02:05:47;;;;;;;20.27;10.57;;;;;;;15.07;43.46;101013.47;5075513;27;96857;-72
2023/03/19 02:08:16;;;;;;;19.55;10.23;;;;;;;15.15;43.08;101011.31;5090329;27;100953;-72
2023/03/19 02:10:46;;;;;;;17.58;10.70;;;;;;;14.91;43.31;101021.34;5087900;27;98944;-73
2023/03/19 02:13:12;;;;;;;20.85;10.85;;;;;;;14.99;43.45;101008.53;5089231;27;97305;-71
2023/03/19 02:15:39;;;;;;;20.85;10.60;;;;;;;14.82;43.43;101011.16;5086837;27;96821;-72
2023/03/19 02:18:06;;;;;;;23.60;11.98;;;;;;;15.00;42.99;101004.06;5079272;27;99067;-73
2023/03/19 02:20:38;;;;;;;18.00;10.70;;;;;;;14.93;42.73;101002.66;5088375;27;97720;-71
2023/03/19 02:23:14;;;;;;;18.67;10.43;;;;;;;14.83;43.32;100996.06;5088474;27;98894;-73
2023/03/19 02:25:54;;;;;;;21.63;11.38;;;;;;;14.99;42.79;100997.03;5085388;27;96761;-71
2023/03/19 02:28:22;;;;;;;24.40;11.98;;;;;;;15.10;42.38;101000.88;5076676;27;99068;-74
2023/03/19 02:30:49;;;;;;;24.23;11.82;;;;;;;14.89;42.79;100998.44;5084944;27;99057;-72
2023/03/19 02:33:17;;;;;;;22.05;11.70;;;;;;;15.06;42.44;101001.97;5088326;27;96794;-73
2023/03/19 02:35:46;;;;;;;22.17;11.05;;;;;;;15.01;42.33;101011.13;5082533;27;98227;-72
2023/03/19 02:38:14;;;;;;;21.75;11.45;;;;;;;14.54;43.91;101010.75;5082182;27;98814;-72
2023/03/19 02:40:47;;;;;;;19.63;10.52;;;;;;;14.81;43.22;101013.91;5092778;27;97565;-72
2023/03/19 02:43:16;;;;;;;20.85;11.13;;;;;;;14.97;42.73;101005.06;5081171;27;97258;-72
2023/03/19 02:45:42;;;;;;;24.45;11.60;;;;;;;14.99;42.86;101002.34;5084515;27;97293;-72
2023/03/19 02:48:08;;;;;;;26.48;11.40;;;;;;;14.83;43.05;101006.72;5084396;27;97066;-72
2023/03/19 02:50:35;;;;;;;18.38;11.50;;;;;;;14.76;42.66;101003.50;5087926;27;102165;-72
2023/03/19 02:53:02;;;;;;;17.83;11.35;;;;;;;14.78;43.18;101009.56;5081140;27;96742;-74
2023/03/19 02:55:28;;;;;;;21.52;11.68;;;;;;;14.95;42.64;101000.78;5094283;27;98026;-73
2023/03/19 02:57:55;;;;;;;19.45;11.05;;;;;;;15.02;42.39;101000.41;5083827;27;99334;-72
2023/03/19 03:00:24;;;;;;;22.60;11.98;;;;;;;14.84;42.76;101000.44;5092966;27;103255;-72
2023/03/19 03:02:50;;;;;;;18.83;10.90;;;;;;;14.71;44.06;100993.06;5074703;27;96854;-71
2023/03/19 03:05:17;;;;;;;20.25;11.45;;;;;;;14.62;44.22;101000.63;5080655;27;96999;-73
2023/03/19 03:07:43;;;;;;;25.38;11.88;;;;;;;14.89;42.96;100993.09;5085421;27;98896;-73
2023/03/19 03:10:11;;;;;;;19.40;11.88;;;;;;;14.56;43.93;100999.13;5087729;27;98363;-73
2023/03/19 03:12:38;;;;;;;20.27;11.15;;;;;;;14.97;43.26;100997.09;5085870;27;97200;-72
2023/03/19 03:15:06;;;;;;;23.50;11.68;;;;;;;14.84;43.00;100995.09;5085034;27;97626;-72
2023/03/19 03:17:33;;;;;;;20.63;11.52;;;;;;;14.81;42.91;100992.63;5072905;27;98895;-73
2023/03/19 03:20:00;;;;;;;20.88;11.23;;;;;;;14.77;42.88;100995.41;5082224;27;99097;-71
2023/03/19 03:22:26;;;;;;;21.77;11.90;;;;;;;14.91;42.73;100999.19;5085708;27;96921;-72
2023/03/19 03:24:52;;;;;;;19.95;11.50;;;;;;;14.72;43.45;100999.22;5084313;27;97788;-72
2023/03/19 03:27:19;;;;;;;23.67;12.23;;;;;;;14.71;43.24;101009.00;5082970;27;99499;-73
2023/03/19 03:29:45;;;;;;;22.13;11.88;;;;;;;14.74;43.47;101008.00;5077503;27;99229;-73
2023/03/19 03:32:16;;;;;;;22.10;11.45;;;;;;;14.75;43.43;101010.59;5085209;27;97514;-72
2023/03/19 03:34:45;;;;;;;22.70;11.45;;;;;;;14.56;43.97;101031.03;5082971;27;97167;-72
2023/03/19 03:37:14;;;;;;;21.98;11.57;;;;;;;14.77;43.41;101053.06;5086355;27;99567;-72
2023/03/19 03:39:41;;;;;;;25.38;13.00;;;;;;;14.53;43.28;101060.41;5076039;27;98022;-72
2023/03/19 03:42:07;;;;;;;19.77;11.52;;;;;;;14.65;43.08;101051.88;5081368;27;97327;-72
2023/03/19 03:44:35;;;;;;;23.65;12.10;;;;;;;14.46;43.10;101050.13;5080571;27;97682;-72
2023/03/19 03:47:02;;;;;;;23.15;12.70;;;;;;;14.80;42.61;101044.94;5086446;27;98987;-73
2023/03/19 03:49:28;;;;;;;19.02;11.70;;;;;;;14.98;42.19;101054.69;5080661;27;98844;-71
2023/03/19 03:51:56;;;;;;;21.10;11.75;;;;;;;14.67;43.17;101047.34;5080508;27;97072;-72
2023/03/19 03:54:23;;;;;;;22.17;12.02;;;;;;;14.57;43.10;101067.31;5086354;27;96919;-72
2023/03/19 03:56:50;;;;;;;20.65;11.88;;;;;;;14.70;43.19;101049.84;5079479;27;99024;-72
2023/03/19 03:59:16;;;;;;;24.90;12.60;;;;;;;14.85;42.68;101058.03;5078256;27;98757;-71
2023/03/19 04:01:43;;;;;;;19.52;11.65;;;;;;;14.60;42.96;101059.19;5083729;27;96933;-71
2023/03/19 04:04:09;;;;;;;20.33;11.35;;;;;;;14.71;43.06;101056.88;5079640;27;97152;-72
2023/03/19 04:06:36;;;;;;;20.10;11.27;;;;;;;14.77;42.80;101052.22;5082669;27;99277;-71
2023/03/19 04:09:04;;;;;;;21.23;12.75;;;;;;;14.70;43.04;101051.66;5084558;27;99027;-71
2023/03/19 04:11:30;;;;;;;21.13;11.38;;;;;;;14.86;43.04;101067.72;5081896;27;96770;-74
2023/03/19 04:13:57;;;;;;;22.25;12.27;;;;;;;14.69;43.49;101066.75;5077970;27;98208;-71
2023/03/19 04:16:24;;;;;;;20.77;12.77;;;;;;;14.75;43.39;101071.78;5083187;27;98576;-71
2023/03/19 04:18:51;;;;;;;22.65;11.00;;;;;;;14.56;44.28;101068.28;5078717;27;99463;-72
2023/03/19 04:21:17;;;;;;;23.17;12.43;;;;;;;14.65;43.49;101064.28;5081933;27;96708;-72
2023/03/19 04:23:44;;;;;;;20.58;12.60;;;;;;;14.69;43.34;101080.06;5084832;27;97471;-72
2023/03/19 04:26:12;;;;;;;22.50;12.85;;;;;;;14.77;43.41;101081.50;5080105;27;99147;-72
2023/03/19 04:28:38;;;;;;;24.48;12.10;;;;;;;14.72;43.87;101076.38;5084453;27;98904;-72
2023/03/19 04:31:08;;;;;;;21.67;12.30;;;;;;;14.60;44.18;101079.63;5082297;27;96949;-73
2023/03/19 04:33:35;;;;;;;22.30;12.63;;;;;;;14.84;43.74;101081.09;5082870;27;97225;-73
2023/03/19 04:36:02;;;;;;;23.73;12.65;;;;;;;14.45;44.31;101085.63;5088867;27;99185;-72
2023/03/19 04:38:28;;;;;;;20.02;11.88;;;;;;;14.45;44.36;101096.25;5075800;27;97690;-72
2023/03/19 04:40:55;;;;;;;21.95;11.80;;;;;;;14.42;44.84;101099.94;5091287;27;97302;-72
2023/03/19 04:43:25;;;;;;;24.90;12.75;;;;;;;14.44;45.08;101100.72;5082887;27;96856;-72
2023/03/19 04:45:51;;;;;;;18.38;11.75;;;;;;;14.65;44.70;101094.41;5076164;27;103112;-72
2023/03/19 04:48:18;;;;;;;24.35;12.90;;;;;;;14.67;44.68;101097.00;5081200;27;98855;-72
2023/03/19 04:50:46;;;;;;;22.77;12.18;;;;;;;14.60;45.16;101095.56;5083252;27;97160;-73
2023/03/19 04:53:12;;;;;;;23.20;12.23;;;;;;;14.43;45.83;101093.72;5080281;27;96969;-73
2023/03/19 04:55:39;;;;;;;23.00;12.55;;;;;;;14.67;46.10;101094.34;5078455;27;97181;-73
2023/03/19 04:58:07;;;;;;;21.92;12.25;;;;;;;14.52;47.12;101098.59;5082856;27;99387;-72
2023/03/19 05:00:35;;;;;;;21.35;12.35;;;;;;;14.55;47.37;101098.44;5086295;27;96769;-72
2023/03/19 05:03:02;;;;;;;20.65;11.88;;;;;;;14.66;47.39;101093.50;5071238;27;98197;-72
2023/03/19 05:05:28;;;;;;;23.33;12.50;;;;;;;14.40;48.69;101088.50;5078260;27;98281;-71
2023/03/19 05:07:56;;;;;;;20.27;12.65;;;;;;;14.99;48.22;101087.50;5082794;27;97910;-73
2023/03/19 05:10:22;;;;;;;28.00;14.88;;;;;;;15.01;48.76;101075.84;5083922;27;97105;-73
2023/03/19 05:12:49;;;;;;;21.52;13.75;;;;;;;15.15;49.08;101075.19;5081124;27;97153;-72
2023/03/19 05:15:16;;;;;;;20.88;13.23;;;;;;;15.10;51.10;101075.38;5081375;27;99317;-71
2023/03/19 05:17:44;;;;;;;20.33;13.23;;;;;;;14.68;52.96;101088.09;5087516;27;102728;-72
2023/03/19 05:20:11;;;;;;;21.88;13.00;;;;;;;14.54;53.95;101091.41;5085454;27;97361;-72
2023/03/19 05:22:38;;;;;;;25.60;13.13;;;;;;;14.22;55.36;101084.00;5093486;27;96800;-72
2023/03/19 05:25:05;;;;;;;23.30;13.90;;;;;;;14.16;55.63;101100.22;5085729;27;98941;-72
2023/03/19 05:27:32;;;;;;;25.65;13.95;;;;;;;14.12;56.43;101101.28;5086067;27;102003;-74
2023/03/19 05:29:59;;;;;;;24.75;13.95;;;;;;;14.52;55.50;101108.34;5085064;27;97205;-72
2023/03/19 05:32:25;;;;;;;25.45;15.05;;;;;;;14.44;56.32;101095.41;5081742;27;96921;-71
2023/03/19 05:34:53;;;;;;;25.92;14.20;;;;;;;14.46;56.71;101082.03;5081693;27;100124;-72
2023/03/19 05:37:20;;;;;;;24.98;14.70;;;;;;;14.46;57.00;101063.44;5086202;27;99034;-71
2023/03/19 05:39:46;;;;;;;29.73;15.98;;;;;;;14.46;57.27;101045.69;5084054;27;97260;-71
2023/03/19 05:42:13;;;;;;;34.47;17.88;;;;;;;14.35;58.23;101013.41;5085291;27;98754;-74
2023/03/19 05:44:39;;;;;;;25.73;15.48;;;;;;;14.62;57.50;101014.78;5077005;27;99706;-71
2023/03/19 05:47:07;;;;;;;27.10;14.57;;;;;;;14.63;57.46;101016.53;5084048;27;98789;-72
2023/03/19 05:49:34;;;;;;;22.80;13.55;;;;;;;14.77;57.17;101020.31;5087848;27;96683;-72
2023/03/19 05:52:02;;;;;;;24.48;13.77;;;;;;;14.84;56.98;101025.22;5081784;27;96931;-73
2023/03/19 05:54:29;;;;;;;25.20;13.40;;;;;;;14.99;56.93;101029.81;5091730;27;98799;-72
2023/03/19 05:56:56;;;;;;;18.38;12.15;;;;;;;15.13;56.88;101026.47;5087235;27;101939;-71
2023/03/19 05:59:22;;;;;;;18.20;12.15;;;;;;;15.09;57.08;101011.63;5083949;27;97223;-72
2023/03/19 06:01:49;;;;;;;20.77;12.18;;;;;;;15.14;57.05;101028.22;5084911;27;97504;-71
2023/03/19 06:04:15;;;;;;;19.95;11.75;;;;;;;15.40;56.31;101018.91;5073191;27;102078;-72
2023/03/19 06:06:41;;;;;;;21.63;11.35;;;;;;;15.32;56.92;101021.94;5080664;27;99153;-72
2023/03/19 06:09:09;;;;;;;22.38;12.05;;;;;;;15.38;56.92;101015.44;5075770;27;97311;-73
2023/03/19 06:11:38;;;;;;;19.70;11.65;;;;;;;15.33;56.97;101021.00;5079304;27;97128;-72
2023/03/19 06:14:04;;;;;;;21.52;11.52;;;;;;;15.26;57.39;101027.59;5080145;27;99087;-73
2023/03/19 06:16:31;;;;;;;19.58;11.38;;;;;;;15.32;57.52;101037.06;5078791;27;98873;-74
2023/03/19 06:18:58;;;;;;;18.52;10.23;;;;;;;15.21;58.01;101034.94;5082738;27;96985;-72
2023/03/19 06:21:28;;;;;;;19.55;11.45;;;;;;;15.13;58.56;101037.13;5079292;27;97183;-72
2023/03/19 06:23:55;;;;;;;22.73;12.13;;;;;;;15.02;59.78;101044.78;5077734;27;101342;-72
2023/03/19 06:26:23;;;;;;;16.45;10.27;;;;;;;15.25;58.54;101047.16;5081822;27;102403;-72
2023/03/19 06:28:50;;;;;;;18.73;10.98;;;;;;;15.49;58.45;101061.06;5084429;27;97063;-72
2023/03/19 06:31:16;;;;;;;15.05;10.48;;;;;;;15.22;59.40;101057.97;5079797;27;97458;-72
2023/03/19 06:33:43;;;;;;;18.13;10.50;;;;;;;15.48;58.03;101062.84;5087944;27;98842;-72
2023/03/19 06:36:10;;;;;;;19.80;10.07;;;;;;;15.83;56.97;101069.03;5077011;27;99644;-72
2023/03/19 06:38:36;;;;;;;17.25;10.82;;;;;;;15.98;58.04;101074.53;5087057;27;97389;-72
2023/03/19 06:41:03;;;;;;;24.30;10.50;;;;;;;15.93;58.64;101077.44;5076866;27;98115;-72
2023/03/19 06:43:35;;;;;;;15.70;10.18;;;;;;;16.40;58.08;101079.38;5078239;27;101084;-74
2023/03/19 06:46:02;;;;;;;21.55;11.30;;;;;;;16.12;59.34;101099.50;5086469;27;101851;-72
2023/03/19 06:48:28;;;;;;;18.90;11.32;;;;;;;16.12;59.04;101118.19;5087596;27;96877;-72
2023/03/19 06:50:54;;;;;;;18.10;10.10;;;;;;;15.94;59.43;101132.47;5081717;27;97287;-72
2023/03/19 06:53:21;;;;;;;17.08;9.60;;;;;;;15.72;60.06;101134.50;5089784;27;98703;-71
2023/03/19 06:55:47;;;;;;;14.23;9.43;;;;;;;15.93;58.61;101131.59;5089527;27;99112;-72
2023/03/19 06:58:14;;;;;;;17.45;9.70;;;;;;;16.03;58.50;101133.78;5082595;27;97347;-72
2023/03/19 07:00:41;;;;;;;13.65;9.98;;;;;;;16.15;58.27;101155.31;5072801;27;97104;-72
2023/03/19 07:03:09;;;;;;;16.48;10.10;;;;;;;15.90;59.01;101192.16;5079583;27;99182;-73
2023/03/19 07:05:35;;;;;;;20.85;12.10;;;;;;;15.62;60.15;101210.50;5086082;27;98023;-72
2023/03/19 07:08:02;;;;;;;16.10;11.80;;;;;;;15.05;61.14;101230.91;5081068;27;96988;-72
2023/03/19 07:10:29;;;;;;;19.02;11.70;;;;;;;14.82;59.40;101201.84;5074591;27;97111;-72
2023/03/19 07:12:55;;;;;;;20.08;12.75;;;;;;;14.51;58.86;101191.72;5073180;27;99070;-71
2023/03/19 07:15:21;;;;;;;20.25;12.70;;;;;;;14.74;58.70;101208.38;5080475;27;98149;-72
2023/03/19 07:17:49;;;;;;;20.17;11.60;;;;;;;14.68;58.68;101221.97;5078252;27;96827;-73
2023/03/19 07:20:16;;;;;;;21.38;13.13;;;;;;;14.66;59.08;101242.44;5083628;27;96911;-72
2023/03/19 07:22:43;;;;;;;19.77;12.40;;;;;;;14.66;58.54;101225.59;5081571;27;98959;-72
2023/03/19 07:25:09;;;;;;;19.48;12.45;;;;;;;15.08;57.51;101207.69;5077783;27;99149;-71
2023/03/19 07:27:36;;;;;;;22.90;13.02;;;;;;;15.02;57.96;101201.78;5085511;27;96883;-72
2023/03/19 07:30:02;;;;;;;26.67;13.65;;;;;;;15.04;57.77;101202.56;5083336;27;97288;-73
2023/03/19 07:32:29;;;;;;;25.50;13.00;;;;;;;15.25;57.59;101176.75;5095635;27;99422;-73
2023/03/19 07:34:57;;;;;;;23.63;13.32;;;;;;;15.08;58.23;101137.63;5090342;27;98802;-73
2023/03/19 07:37:23;;;;;;;22.90;13.50;;;;;;;15.02;58.48;101122.81;5085184;27;99209;-72
2023/03/19 07:39:50;;;;;;;25.13;13.57;;;;;;;15.11;58.64;101121.50;5082729;27;97112;-73
2023/03/19 07:42:16;;;;;;;23.23;13.73;;;;;;;15.07;59.33;101133.25;5080525;27;97931;-72
2023/03/19 07:44:42;;;;;;;19.63;12.35;;;;;;;14.66;60.03;101143.16;5078621;27;101934;-72
2023/03/19 07:47:09;;;;;;;20.80;13.27;;;;;;;14.24;61.20;101140.63;5084169;27;96943;-72
2023/03/19 07:49:36;;;;;;;24.52;13.95;;;;;;;14.84;59.72;101121.00;5080766;27;97551;-71
2023/03/19 07:52:03;;;;;;;24.58;14.02;;;;;;;14.95;59.63;101131.16;5081483;27;99615;-72
2023/03/19 07:54:30;;;;;;;22.52;12.95;;;;;;;14.87;60.14;101139.50;5077615;27;99672;-72
2023/03/19 07:56:56;;;;;;;23.85;13.48;;;;;;;14.91;60.57;101142.88;5078179;27;96974;-73
2023/03/19 07:59:23;;;;;;;26.42;14.02;;;;;;;14.74;60.94;101152.53;5078059;27;96867;-72
2023/03/19 08:01:49;;;;;;;26.80;13.43;;;;;;;14.73;60.93;101152.59;5077049;27;99472;-72
2023/03/19 08:04:16;;;;;;;27.25;14.65;;;;;;;14.73;61.53;101161.44;5085305;27;99057;-72
2023/03/19 08:06:42;;;;;;;24.95;13.98;;;;;;;14.80;60.80;101158.47;5083031;27;96975;-73
2023/03/19 08:09:10;;;;;;;22.35;13.93;;;;;;;14.77;60.34;101143.50;5079485;27;97318;-71
2023/03/19 08:11:37;;;;;;;26.10;15.32;;;;;;;15.10;60.12;101136.59;5077019;27;97623;-73
2023/03/19 08:14:03;;;;;;;26.60;14.02;;;;;;;15.23;59.90;101147.53;5091015;27;99155;-73
2023/03/19 08:16:29;;;;;;;24.10;13.48;;;;;;;15.29;59.40;101152.56;5077978;27;97235;-72
2023/03/19 08:18:56;;;;;;;25.92;16.48;;;;;;;15.21;59.77;101161.84;5079201;27;97120;-73
2023/03/19 08:21:22;;;;;;;22.50;14.32;;;;;;;15.15;60.84;101168.34;5078074;27;99303;-72
2023/03/19 08:23:49;;;;;;;22.30;13.65;;;;;;;15.13;61.41;101176.41;5087701;27;100770;-72
2023/03/19 08:26:17;;;;;;;23.05;13.70;;;;;;;15.14;61.76;101195.91;5078384;27;97018;-72
2023/03/19 08:28:43;;;;;;;26.33;15.50;;;;;;;14.91;61.72;101202.28;5080102;27;97475;-71
2023/03/19 08:31:11;;;;;;;27.60;15.60;;;;;;;14.86;61.96;101209.63;5081591;27;99547;-73
2023/03/19 08:33:38;;;;;;;26.45;15.05;;;;;;;14.97;61.58;101222.41;5085577;27;97764;-72
2023/03/19 08:36:06;;;;;;;27.00;15.23;;;;;;;14.53;63.23;101230.63;5085814;27;96795;-73
2023/03/19 08:38:33;;;;;;;27.75;15.20;;;;;;;14.77;61.94;101240.16;5085119;27;97181;-72
2023/03/19 08:41:02;;;;;;;26.52;15.50;;;;;;;14.77;62.22;101237.50;5083295;27;98719;-76
2023/03/19 08:43:31;;;;;;;22.60;15.10;;;;;;;14.48;62.39;101229.97;5093970;27;98734;-78
2023/03/19 08:45:58;;;;;;;26.00;14.90;;;;;;;14.46;63.66;101230.94;5084231;27;96924;-78
2023/03/19 08:48:25;;;;;;;22.95;14.60;;;;;;;14.54;63.15;101227.03;5087355;27;97195;-78
2023/03/19 08:50:53;;;;;;;21.95;14.43;;;;;;;14.67;63.14;101225.56;5081857;27;99172;-78
2023/03/19 08:53:20;;;;;;;24.67;15.00;;;;;;;14.59;63.25;101222.34;5086635;27;99254;-77
2023/03/19 08:55:51;;;;;;;23.05;14.10;;;;;;;14.57;64.22;101226.88;5083153;27;97778;-78
2023/03/19 08:58:17;;;;;;;23.17;14.30;;;;;;;14.40;63.76;101212.59;5081272;27;96972;-78
2023/03/19 09:00:45;;;;;;;23.05;13.90;;;;;;;14.25;64.79;101211.44;5086020;27;98865;-77
2023/03/19 09:03:12;;;;;;;23.67;15.02;;;;;;;14.14;65.82;101197.75;5080826;27;99203;-78
2023/03/19 09:05:38;;;;;;;26.25;15.05;;;;;;;14.27;65.78;101175.91;5092053;27;96797;-78
2023/03/19 09:08:05;;;;;;;22.85;14.52;;;;;;;14.64;64.89;101167.16;5078814;27;97354;-77
2023/03/19 09:10:32;;;;;;;23.58;14.45;;;;;;;14.81;64.23;101173.50;5081432;27;99185;-78
2023/03/19 09:12:58;;;;;;;21.60;14.65;;;;;;;14.85;63.85;101180.41;5088250;27;100872;-78
2023/03/19 09:15:26;;;;;;;18.60;12.10;;;;;;;15.18;62.41;101176.16;5083179;27;97203;-79
2023/03/19 09:17:53;;;;;;;26.30;13.32;;;;;;;15.29;61.89;101173.00;5083517;27;96921;-73
2023/03/19 09:20:20;;;;;;;22.17;13.55;;;;;;;15.56;61.07;101177.00;5080742;27;97669;-73
2023/03/19 09:22:47;;;;;;;21.95;13.48;;;;;;;15.85;60.40;101164.91;5081066;27;101518;-73
2023/03/19 09:25:13;;;;;;;22.88;13.43;;;;;;;15.93;59.91;101165.38;5092757;27;96736;-72
2023/03/19 09:27:39;;;;;;;23.95;13.23;;;;;;;15.91;60.54;101160.13;5084386;27;97076;-73
2023/03/19 09:30:08;;;;;;;30.33;15.70;;;;;;;15.99;60.03;101151.75;5081237;27;98983;-74
2023/03/19 09:32:35;;;;;;;21.58;13.00;;;;;;;15.81;60.57;101152.69;5082183;27;100262;-73
2023/03/19 09:35:03;;;;;;;23.73;12.52;;;;;;;15.83;61.19;101151.66;5090649;27;97060;-73
2023/03/19 09:37:29;;;;;;;24.13;12.93;;;;;;;16.02;60.59;101151.56;5082944;27;97675;-72
2023/03/19 09:39:56;;;;;;;20.52;13.00;;;;;;;16.31;59.86;101153.59;5080074;27;99400;-75
2023/03/19 09:42:40;;;;;;;18.83;12.40;;;;;;;16.53;59.15;101155.13;5083180;27;99276;-73
2023/03/19 09:45:13;;;;;;;17.77;11.75;;;;;;;16.95;57.60;101147.47;5093845;27;96824;-74
2023/03/19 09:47:42;;;;;;;17.92;11.35;;;;;;;17.40;57.19;101151.16;5087197;27;97178;-74
2023/03/19 09:50:14;;;;;;;17.35;10.98;;;;;;;17.76;56.15;101149.06;5086010;27;99241;-72
2023/03/19 09:52:45;;;;;;;20.05;11.18;;;;;;;17.62;56.29;101140.97;5085744;27;100914;-73
2023/03/19 09:55:23;;;;;;;16.60;10.30;;;;;;;17.94;55.79;101141.75;5088039;27;96769;-74
2023/03/19 09:57:52;;;;;;;13.30;9.50;;;;;;;18.01;55.28;101144.91;5087009;27;96814;-73
2023/03/19 10:00:22;;;;;;;15.07;9.57;;;;;;;18.14;55.03;101136.06;5083978;27;100886;-74
2023/03/19 10:02:54;;;;;;;13.82;9.50;;;;;;;18.02;55.58;101138.63;5083317;27;99627;-73
2023/03/19 10:05:32;;;;;;;14.93;9.65;;;;;;;17.88;55.93;101144.78;5080667;27;96703;-73
2023/03/19 10:08:21;;;;;;;17.02;9.95;;;;;;;17.91;56.24;101140.13;5079608;27;96933;-73
2023/03/19 10:10:55;;;;;;;14.75;10.18;;;;;;;17.83;56.76;101139.72;5078685;27;97800;-73
2023/03/19 10:13:36;;;;;;;17.85;9.20;;;;;;;17.58;57.17;101150.13;5086137;27;99131;-74
2023/03/19 10:16:05;;;;;;;14.30;9.77;;;;;;;17.44;57.22;101148.22;5080505;27;97274;-74
2023/03/19 10:18:38;;;;;;;14.15;9.43;;;;;;;17.22;58.20;101146.84;5095216;27;96891;-73
2023/03/19 10:21:11;;;;;;;14.57;10.25;;;;;;;17.60;57.90;101141.97;5077917;27;98888;-73
2023/03/19 10:23:44;;;;;;;15.45;10.00;;;;;;;17.64;57.58;101140.91;5090497;27;98881;-74
2023/03/19 10:26:12;;;;;;;21.00;10.45;;;;;;;17.46;58.32;101153.47;5075449;27;96846;-74
2023/03/19 10:28:42;;;;;;;15.75;9.90;;;;;;;17.57;57.96;101147.53;5082538;27;97275;-74
2023/03/19 10:31:22;;;;;;;15.05;9.70;;;;;;;17.71;58.20;101156.50;5086610;27;98900;-73
2023/03/19 10:33:57;;;;;;;16.27;10.13;;;;;;;17.95;57.12;101155.97;5081456;27;99833;-74
2023/03/19 10:36:30;;;;;;;15.85;9.65;;;;;;;18.04;56.24;101152.78;5089213;27;96700;-74
2023/03/19 10:39:00;;;;;;;13.48;9.88;;;;;;;18.28;55.56;101152.16;5081453;27;96940;-75
2023/03/19 10:41:47;;;;;;;12.38;9.75;;;;;;;18.54;54.64;101153.22;5087011;27;99305;-74
2023/03/19 10:44:28;;;;;;;18.85;10.50;;;;;;;18.58;54.82;101154.75;5082217;27;100147;-73
2023/03/19 10:46:58;;;;;;;17.65;10.13;;;;;;;18.71;54.87;101154.84;5076461;27;97327;-74
2023/03/19 10:49:25;;;;;;;15.95;10.18;;;;;;;18.80;54.20;101158.78;5077114;27;96799;-74
2023/03/19 10:51:57;;;;;;;15.48;10.63;;;;;;;18.85;53.75;101151.31;5079320;27;98972;-74
2023/03/19 10:54:25;;;;;;;18.45;10.35;;;;;;;18.73;54.14;101157.44;5083000;27;98877;-73
2023/03/19 10:56:56;;;;;;;19.00;10.05;;;;;;;18.61;54.40;101154.59;5095235;27;97492;-73
2023/03/19 10:59:25;;;;;;;16.58;9.77;;;;;;;18.64;54.53;101157.06;5084340;27;97274;-73
2023/03/19 11:01:57;;;;;;;14.25;9.48;;;;;;;18.51;54.81;101153.38;5090294;27;99906;-74
2023/03/19 11:04:26;;;;;;;13.25;9.02;;;;;;;18.36;54.83;101150.81;5060074;27;98824;-73
2023/03/19 11:06:55;;;;;;;15.75;8.93;;;;;;;18.47;55.41;101157.22;5072697;27;97114;-73
2023/03/19 11:09:32;;;;;;;13.73;9.18;;;;;;;18.11;55.66;101152.31;5078845;27;96878;-75
2023/03/19 11:12:06;;;;;;;17.25;9.82;;;;;;;18.26;55.73;101153.19;5075580;27;98267;-74